Time;durP1;ratioP1;P1;durP2;ratioP2;P2;SDS_P1;SDS_P2;PMS_P1;PMS_P2;Temp;Humidity;BMP_temperature;BMP_pressure;BME280_temperature;BME280_humidity;BME280_pressure;Samples;Min_cycle;Max_cycle;Signal;HPM_P1;HPM_P2
2021/10/10 00:00:36;;;;;;;30.13;16.63;;;;;;;7.83;100.00;93684.94;5029569;28;20103;-81
2021/10/10 00:03:03;;;;;;;27.67;16.73;;;;;;;7.86;100.00;93682.00;5029289;28;20585;-81
2021/10/10 00:05:30;;;;;;;33.30;17.73;;;;;;;7.83;100.00;93665.25;5029397;28;20045;-81
2021/10/10 00:07:57;;;;;;;30.55;17.70;;;;;;;7.85;100.00;93662.50;5029661;28;20041;-81
2021/10/10 00:10:24;;;;;;;27.50;16.33;;;;;;;7.79;100.00;93665.78;5029335;28;20053;-81
2021/10/10 00:12:50;;;;;;;31.02;17.05;;;;;;;7.73;100.00;93652.75;5029317;28;20054;-81
2021/10/10 00:15:17;;;;;;;35.05;18.23;;;;;;;7.81;100.00;93666.41;5029426;28;20050;-81
2021/10/10 00:17:45;;;;;;;30.08;18.20;;;;;;;7.78;100.00;93661.66;5029048;28;20068;-81
2021/10/10 00:20:12;;;;;;;29.23;17.90;;;;;;;7.90;100.00;93675.56;5029487;28;20056;-80
2021/10/10 00:22:39;;;;;;;29.70;18.23;;;;;;;7.92;100.00;93681.28;5029283;28;20103;-81
2021/10/10 00:25:08;;;;;;;33.35;18.30;;;;;;;7.92;100.00;93678.72;5025422;28;20050;-81
2021/10/10 00:27:35;;;;;;;34.28;18.92;;;;;;;7.86;100.00;93666.66;5027514;28;20057;-81
2021/10/10 00:30:03;;;;;;;32.70;18.77;;;;;;;7.88;100.00;93673.16;5030045;28;20049;-81
2021/10/10 00:32:30;;;;;;;29.58;17.65;;;;;;;7.65;100.00;93637.53;5032778;28;20060;-81
2021/10/10 00:34:58;;;;;;;29.02;17.33;;;;;;;7.78;100.00;93652.19;5032774;28;20535;-81
2021/10/10 00:37:25;;;;;;;38.47;19.75;;;;;;;7.78;100.00;93662.44;5032963;28;20551;-81
2021/10/10 00:39:52;;;;;;;36.47;20.38;;;;;;;7.74;100.00;93654.34;5032715;28;20046;-80
2021/10/10 00:42:19;;;;;;;35.78;19.67;;;;;;;7.55;100.00;93624.25;5032783;28;20570;-81
2021/10/10 00:44:47;;;;;;;34.20;19.67;;;;;;;7.77;100.00;93654.97;5032644;28;20045;-81
2021/10/10 00:47:15;;;;;;;35.22;18.88;;;;;;;7.83;100.00;93667.03;5032760;28;20450;-81
2021/10/10 00:49:42;;;;;;;35.17;20.58;;;;;;;7.83;100.00;93665.25;5032858;28;20053;-81
2021/10/10 00:52:15;;;;;;;38.00;20.75;;;;;;;7.69;100.00;93643.84;5032466;28;20049;-81
2021/10/10 00:54:44;;;;;;;32.80;19.63;;;;;;;7.66;100.00;93659.56;5032430;28;20485;-80
2021/10/10 00:57:12;;;;;;;34.75;18.98;;;;;;;7.65;100.00;93652.88;5032510;28;20103;-81
2021/10/10 00:59:42;;;;;;;33.65;19.13;;;;;;;7.55;100.00;93629.38;5032227;28;20049;-80
2021/10/10 01:02:09;;;;;;;31.95;19.02;;;;;;;7.66;100.00;93640.88;5032555;28;20405;-80
2021/10/10 01:04:36;;;;;;;30.02;17.52;;;;;;;7.78;100.00;93654.75;5032448;28;20045;-80
2021/10/10 01:07:04;;;;;;;29.23;17.70;;;;;;;7.57;100.00;93614.63;5032084;28;20068;-81
2021/10/10 01:09:34;;;;;;;30.67;18.58;;;;;;;7.75;100.00;93629.56;5032449;28;20076;-80
2021/10/10 01:12:02;;;;;;;32.55;17.83;;;;;;;7.90;100.00;93642.31;5032269;28;20054;-80
2021/10/10 01:14:29;;;;;;;29.23;17.00;;;;;;;7.94;100.00;93650.41;5031991;28;20041;-81
2021/10/10 01:16:56;;;;;;;28.25;17.20;;;;;;;7.91;100.00;93643.09;5032465;28;20452;-80
2021/10/10 01:19:23;;;;;;;29.67;17.08;;;;;;;7.97;100.00;93648.25;5031828;28;20050;-81
2021/10/10 01:21:51;;;;;;;28.88;17.20;;;;;;;7.96;100.00;93649.25;5031905;28;20052;-80
2021/10/10 01:24:18;;;;;;;26.67;16.58;;;;;;;7.97;100.00;93644.94;5031835;28;20049;-81
2021/10/10 01:26:44;;;;;;;26.58;17.70;;;;;;;8.04;100.00;93652.69;5031795;28;20568;-80
2021/10/10 01:29:11;;;;;;;23.75;15.20;;;;;;;8.04;100.00;93645.00;5031879;28;20106;-81
2021/10/10 01:31:38;;;;;;;20.55;14.35;;;;;;;8.00;100.00;93647.09;5031953;28;20452;-81
2021/10/10 01:34:05;;;;;;;18.70;13.23;;;;;;;8.04;100.00;93650.13;5031548;28;20053;-80
2021/10/10 01:36:35;;;;;;;20.38;13.10;;;;;;;7.99;100.00;93645.53;5031778;28;20493;-80
2021/10/10 01:39:04;;;;;;;20.13;13.15;;;;;;;8.00;100.00;93640.25;5031939;28;20413;-80
2021/10/10 01:41:31;;;;;;;23.10;14.02;;;;;;;8.05;100.00;93652.47;5031852;28;20068;-80
2021/10/10 01:43:58;;;;;;;23.40;14.63;;;;;;;8.00;100.00;93644.56;5031957;28;20046;-80
2021/10/10 01:46:24;;;;;;;24.15;14.32;;;;;;;8.00;100.00;93640.25;5031369;28;20516;-80
2021/10/10 01:48:51;;;;;;;26.15;15.80;;;;;;;7.91;100.00;93650.78;5031756;28;20046;-81
2021/10/10 01:51:18;;;;;;;22.73;14.15;;;;;;;7.88;100.00;93634.81;5031488;28;20516;-81
2021/10/10 01:53:45;;;;;;;21.95;14.93;;;;;;;7.91;100.00;93649.00;5031127;28;20099;-81
2021/10/10 01:56:16;;;;;;;23.67;15.32;;;;;;;7.98;100.00;93655.00;5031731;28;20122;-81
2021/10/10 01:58:43;;;;;;;20.33;14.43;;;;;;;7.92;100.00;93649.78;5031568;28;20054;-81
2021/10/10 02:01:10;;;;;;;21.55;14.70;;;;;;;7.91;100.00;93638.75;5031554;28;20049;-81
2021/10/10 02:03:36;;;;;;;23.05;15.02;;;;;;;7.98;100.00;93642.19;5031165;28;20519;-81
2021/10/10 02:06:03;;;;;;;25.75;16.38;;;;;;;7.93;100.00;93638.59;5031153;28;20053;-83
2021/10/10 02:08:30;;;;;;;23.60;15.13;;;;;;;7.91;100.00;93648.22;5031458;28;20049;-82
2021/10/10 02:10:57;;;;;;;24.08;15.65;;;;;;;7.85;100.00;93653.09;5031040;28;20099;-82
2021/10/10 02:13:25;;;;;;;23.15;14.10;;;;;;;7.83;100.00;93649.91;5031211;28;20057;-82
2021/10/10 02:15:52;;;;;;;26.75;16.65;;;;;;;7.95;100.00;93655.34;5030941;28;20048;-82
2021/10/10 02:18:19;;;;;;;26.55;16.50;;;;;;;7.98;100.00;93659.31;5031178;28;20053;-81
2021/10/10 02:20:45;;;;;;;36.30;17.83;;;;;;;7.98;100.00;93649.06;5030698;28;20045;-81
2021/10/10 02:23:12;;;;;;;35.60;18.38;;;;;;;7.85;100.00;93619.84;5031104;28;20049;-81
2021/10/10 02:25:39;;;;;;;33.42;17.92;;;;;;;7.95;100.00;93637.44;5031034;28;20050;-81
2021/10/10 02:28:06;;;;;;;32.45;17.83;;;;;;;7.73;100.00;93624.63;5030511;28;20045;-81
2021/10/10 02:30:34;;;;;;;38.17;20.55;;;;;;;7.55;100.00;93637.03;5031046;28;20046;-81
2021/10/10 02:33:01;;;;;;;41.47;21.77;;;;;;;7.32;100.00;93631.06;5030819;28;20444;-81
2021/10/10 02:35:28;;;;;;;41.63;20.08;;;;;;;7.28;100.00;93608.63;5030708;28;20481;-81
2021/10/10 02:37:54;;;;;;;42.60;21.95;;;;;;;7.14;100.00;93597.44;5030588;28;20053;-81
2021/10/10 02:40:21;;;;;;;42.95;22.17;;;;;;;7.13;100.00;93618.84;5030672;28;20045;-83
2021/10/10 02:42:48;;;;;;;43.88;23.00;;;;;;;7.16;100.00;93628.72;5030557;28;20046;-83
2021/10/10 02:45:15;;;;;;;40.83;20.77;;;;;;;7.14;100.00;93623.78;5030344;28;20495;-83
2021/10/10 02:47:44;;;;;;;38.42;21.40;;;;;;;7.22;100.00;93620.31;5030433;28;20050;-82
2021/10/10 02:50:11;;;;;;;35.10;20.25;;;;;;;7.34;100.00;93634.25;5030584;28;20053;-82
2021/10/10 02:52:37;;;;;;;41.75;20.90;;;;;;;7.44;100.00;93622.94;5029664;28;20053;-82
2021/10/10 02:55:05;;;;;;;37.10;20.85;;;;;;;7.65;100.00;93644.41;5030048;28;20064;-82
2021/10/10 02:57:32;;;;;;;36.47;18.80;;;;;;;7.72;100.00;93637.59;5030076;28;20057;-82
2021/10/10 02:59:59;;;;;;;35.95;17.88;;;;;;;7.74;100.00;93628.00;5030191;28;20103;-82
2021/10/10 03:02:25;;;;;;;35.40;19.48;;;;;;;7.73;100.00;93619.50;5030186;28;20057;-82
2021/10/10 03:04:54;;;;;;;38.38;21.75;;;;;;;7.78;100.00;93623.31;5030120;28;20096;-82
2021/10/10 03:07:20;;;;;;;37.88;20.17;;;;;;;7.82;100.00;93622.75;5030170;28;20052;-82
2021/10/10 03:09:47;;;;;;;32.42;18.27;;;;;;;7.82;100.00;93620.19;5029774;28;20504;-82
2021/10/10 03:12:14;;;;;;;34.97;19.42;;;;;;;7.92;100.00;93629.34;5029864;28;20046;-82
2021/10/10 03:14:41;;;;;;;34.53;19.20;;;;;;;7.87;100.00;93615.31;5030328;28;20463;-82
2021/10/10 03:17:08;;;;;;;37.50;20.30;;;;;;;8.05;100.00;93624.31;5029611;28;20049;-82
2021/10/10 03:19:35;;;;;;;34.03;18.67;;;;;;;8.08;100.00;93631.66;5030065;28;20056;-82
2021/10/10 03:22:03;;;;;;;33.92;18.83;;;;;;;8.11;100.00;93622.81;5029980;28;20120;-82
2021/10/10 03:24:30;;;;;;;34.08;19.40;;;;;;;8.10;100.00;93619.44;5029631;28;20096;-82
2021/10/10 03:26:57;;;;;;;34.50;19.40;;;;;;;8.14;100.00;93628.34;5029628;28;20045;-82
2021/10/10 03:29:24;;;;;;;32.70;19.40;;;;;;;8.19;100.00;93627.03;5029665;28;20053;-82
2021/10/10 03:31:51;;;;;;;33.20;18.13;;;;;;;7.86;100.00;93577.13;5029594;28;20539;-83
2021/10/10 03:34:18;;;;;;;32.60;17.92;;;;;;;8.23;100.00;93634.13;5029712;28;20056;-83
2021/10/10 03:36:45;;;;;;;30.35;17.83;;;;;;;8.15;100.00;93616.38;5029729;28;20049;-83
2021/10/10 03:39:13;;;;;;;30.45;17.30;;;;;;;8.21;100.00;93625.84;5029748;28;20049;-82
2021/10/10 03:41:39;;;;;;;29.10;17.75;;;;;;;8.27;100.00;93629.44;5029454;28;20136;-82
2021/10/10 03:44:06;;;;;;;29.63;17.33;;;;;;;8.31;100.00;93640.09;5029178;28;20041;-82
2021/10/10 03:46:33;;;;;;;33.72;20.10;;;;;;;8.31;100.00;93633.22;5029429;28;20045;-82
2021/10/10 03:49:00;;;;;;;38.20;19.90;;;;;;;8.32;100.00;93634.78;5029308;28;20102;-83
2021/10/10 03:51:27;;;;;;;36.90;20.52;;;;;;;8.31;100.00;93633.22;5029394;28;20099;-82
2021/10/10 03:56:44;;;;;;;33.33;18.65;;;;;;;8.18;100.00;93615.19;4990880;28;20050;-82
2021/10/10 03:59:11;;;;;;;31.13;18.60;;;;;;;8.32;100.00;93632.22;5029469;28;20520;-82
2021/10/10 04:01:39;;;;;;;36.20;20.67;;;;;;;8.24;100.00;93622.91;5029601;28;20405;-82
2021/10/10 04:04:06;;;;;;;41.33;22.92;;;;;;;8.25;100.00;93616.81;5028184;28;20046;-83
2021/10/10 04:06:33;;;;;;;46.08;24.02;;;;;;;8.22;100.00;93624.06;5029116;28;20056;-84
2021/10/10 04:09:00;;;;;;;38.35;21.67;;;;;;;8.24;100.00;93625.47;5029096;28;20049;-82
2021/10/10 04:11:27;;;;;;;41.58;20.67;;;;;;;8.23;100.00;93621.34;5029019;28;20049;-82
2021/10/10 04:13:55;;;;;;;35.40;21.55;;;;;;;8.25;100.00;93618.59;5029189;28;20053;-82
2021/10/10 04:16:22;;;;;;;44.67;22.38;;;;;;;8.22;100.00;93627.44;5029164;28;20107;-82
2021/10/10 04:18:48;;;;;;;40.58;20.73;;;;;;;8.15;100.00;93618.91;5019146;28;20089;-82
2021/10/10 04:21:15;;;;;;;40.83;21.60;;;;;;;8.15;100.00;93614.56;5019281;28;21126;-82
2021/10/10 04:23:42;;;;;;;39.67;21.48;;;;;;;8.16;100.00;93618.72;5028160;28;20049;-82
2021/10/10 04:26:09;;;;;;;35.97;20.98;;;;;;;8.07;100.00;93626.72;5029209;28;20049;-82
2021/10/10 04:28:36;;;;;;;34.42;19.25;;;;;;;8.02;100.00;93634.94;5018710;28;20049;-82
2021/10/10 04:31:04;;;;;;;41.70;21.30;;;;;;;7.93;100.00;93631.72;5012414;28;20066;-81
2021/10/10 04:33:31;;;;;;;47.55;24.50;;;;;;;7.94;100.00;93630.75;5014429;28;20057;-81
2021/10/10 04:35:58;;;;;;;41.60;21.95;;;;;;;7.86;100.00;93626.53;5026163;28;20049;-82
2021/10/10 04:38:24;;;;;;;39.97;21.42;;;;;;;7.72;100.00;93619.69;5009287;28;20049;-81
2021/10/10 04:40:51;;;;;;;38.35;23.00;;;;;;;7.74;100.00;93631.31;5009600;28;20061;-82
2021/10/10 04:43:18;;;;;;;40.65;22.77;;;;;;;7.74;100.00;93618.53;5009357;28;20050;-82
2021/10/10 04:45:45;;;;;;;37.40;20.75;;;;;;;7.70;100.00;93608.88;5014778;28;20050;-81
2021/10/10 04:48:13;;;;;;;37.97;21.60;;;;;;;7.78;100.00;93610.50;5028988;28;20406;-82
2021/10/10 04:50:40;;;;;;;36.22;21.20;;;;;;;7.77;100.00;93602.03;5029051;28;20045;-82
2021/10/10 04:53:07;;;;;;;39.10;20.92;;;;;;;7.89;100.00;93612.59;5028806;28;20045;-82
2021/10/10 04:55:33;;;;;;;29.75;18.38;;;;;;;7.83;100.00;93595.41;5028709;28;20050;-82
2021/10/10 04:58:01;;;;;;;32.28;19.42;;;;;;;8.01;100.00;93613.66;5028645;28;20061;-82
2021/10/10 05:00:28;;;;;;;34.67;19.83;;;;;;;8.04;100.00;93607.41;5007766;28;20050;-81
2021/10/10 05:02:55;;;;;;;32.95;18.42;;;;;;;8.06;100.00;93613.13;5014676;28;20563;-82
2021/10/10 05:05:23;;;;;;;28.08;18.08;;;;;;;7.92;100.00;93585.84;5009331;28;20054;-82
2021/10/10 05:07:50;;;;;;;33.70;18.50;;;;;;;8.13;100.00;93615.75;5009224;28;20050;-82
2021/10/10 05:10:16;;;;;;;30.27;18.70;;;;;;;8.08;100.00;93592.47;5008826;28;20078;-81
2021/10/10 05:12:43;;;;;;;30.88;18.65;;;;;;;8.22;100.00;93601.84;5009096;28;20528;-82
2021/10/10 05:15:10;;;;;;;33.65;17.70;;;;;;;8.32;100.00;93600.75;5009552;28;20456;-81
2021/10/10 05:17:37;;;;;;;33.85;18.08;;;;;;;8.24;100.00;93589.66;5012288;28;20064;-81
2021/10/10 05:20:05;;;;;;;41.22;24.70;;;;;;;8.38;100.00;93595.66;5012177;28;20463;-83
2021/10/10 05:22:33;;;;;;;51.65;30.33;;;;;;;8.35;100.00;93592.69;5020576;28;20455;-83
2021/10/10 05:25:00;;;;;;;51.33;30.17;;;;;;;8.44;100.00;93601.81;5031930;28;20422;-83
2021/10/10 05:27:27;;;;;;;45.90;26.08;;;;;;;8.53;100.00;93612.72;5031943;28;20053;-83
2021/10/10 05:29:54;;;;;;;50.80;30.70;;;;;;;8.34;100.00;93575.75;5031793;28;20049;-83
2021/10/10 05:32:21;;;;;;;50.47;31.25;;;;;;;8.62;100.00;93614.19;5032175;28;20049;-84
2021/10/10 05:34:48;;;;;;;106.00;75.65;;;;;;;8.68;100.00;93618.56;5031762;28;20057;-84
2021/10/10 05:37:14;;;;;;;67.90;43.42;;;;;;;8.58;100.00;93596.81;5016067;28;20046;-84
2021/10/10 05:39:43;;;;;;;99.25;70.85;;;;;;;8.66;100.00;93606.91;5011982;28;20049;-84
2021/10/10 05:42:10;;;;;;;55.60;36.00;;;;;;;8.46;100.00;93579.38;5012248;28;20061;-84
2021/10/10 05:44:36;;;;;;;45.85;27.42;;;;;;;8.77;100.00;93621.75;5011842;28;20046;-85
2021/10/10 05:47:03;;;;;;;39.95;22.25;;;;;;;8.77;100.00;93626.06;5011910;28;20061;-84
2021/10/10 05:49:30;;;;;;;32.42;19.50;;;;;;;8.74;100.00;93621.34;5011786;28;20047;-84
2021/10/10 05:51:59;;;;;;;28.15;17.65;;;;;;;8.69;100.00;93616.75;5011791;28;20060;-84
2021/10/10 05:54:27;;;;;;;27.55;18.17;;;;;;;8.54;100.00;93609.19;5011739;28;20069;-83
2021/10/10 05:56:57;;;;;;;22.92;15.77;;;;;;;8.63;100.00;93614.94;5011972;28;20048;-83
2021/10/10 05:59:24;;;;;;;26.48;18.20;;;;;;;8.22;100.00;93568.56;5011696;28;20054;-83
2021/10/10 06:01:51;;;;;;;28.38;18.27;;;;;;;8.52;100.00;93616.28;5011761;28;20481;-82
2021/10/10 06:04:18;;;;;;;26.23;19.10;;;;;;;8.52;100.00;93604.25;5011250;28;20054;-82
2021/10/10 06:06:44;;;;;;;28.00;18.48;;;;;;;8.69;100.00;93625.25;5011245;28;20141;-82
2021/10/10 06:09:11;;;;;;;24.40;16.48;;;;;;;8.76;100.00;93620.19;5011393;28;20050;-82
2021/10/10 06:11:38;;;;;;;23.67;17.15;;;;;;;8.69;100.00;93593.72;5011657;28;20054;-82
2021/10/10 06:14:07;;;;;;;20.70;14.73;;;;;;;8.96;100.00;93619.47;5011312;28;20096;-85
2021/10/10 06:16:34;;;;;;;41.10;29.05;;;;;;;9.04;100.00;93623.66;5011194;28;20086;-85
2021/10/10 06:19:02;;;;;;;34.83;23.58;;;;;;;9.07;100.00;93616.38;5010991;28;20053;-84
2021/10/10 06:21:30;;;;;;;34.22;23.17;;;;;;;9.04;100.00;93610.84;5011133;28;20057;-85
2021/10/10 06:23:57;;;;;;;42.30;27.73;;;;;;;9.25;100.00;93622.78;5030927;28;20055;-85
2021/10/10 06:26:24;;;;;;;32.50;21.08;;;;;;;9.29;100.00;93626.53;5030224;28;20045;-84
2021/10/10 06:28:51;;;;;;;41.45;27.42;;;;;;;9.36;100.00;93624.78;5030741;28;20052;-82
2021/10/10 06:31:19;;;;;;;59.03;40.95;;;;;;;9.43;100.00;93634.28;5030712;28;20068;-81
2021/10/10 06:33:46;;;;;;;30.60;20.90;;;;;;;9.28;100.00;93598.53;5030814;28;20060;-82
2021/10/10 06:36:14;;;;;;;26.98;17.15;;;;;;;9.54;100.00;93618.34;5029373;28;20053;-82
2021/10/10 06:38:40;;;;;;;44.70;24.35;;;;;;;9.66;100.00;93633.16;5030608;28;20080;-82
2021/10/10 06:41:07;;;;;;;187.95;81.68;;;;;;;9.62;100.00;93617.38;5030255;28;20497;-82
2021/10/10 06:43:34;;;;;;;57.45;30.05;;;;;;;9.78;100.00;93635.97;5030460;28;20049;-82
2021/10/10 06:46:01;;;;;;;118.18;58.47;;;;;;;9.76;100.00;93620.75;5025496;28;20045;-82
2021/10/10 06:48:29;;;;;;;92.72;50.55;;;;;;;9.66;100.00;93604.94;5028316;28;20107;-81
2021/10/10 06:50:56;;;;;;;82.70;47.47;;;;;;;9.88;100.00;93637.19;5029802;28;21703;-81
2021/10/10 06:53:23;;;;;;;39.85;24.15;;;;;;;9.93;100.00;93646.06;5030097;28;20057;-83
2021/10/10 06:55:49;;;;;;;28.95;18.13;;;;;;;9.96;100.00;93648.25;5030031;28;20497;-81
2021/10/10 06:58:17;;;;;;;24.30;16.27;;;;;;;9.86;100.00;93626.31;5018287;28;20061;-82
2021/10/10 07:00:45;;;;;;;25.85;17.30;;;;;;;10.00;100.00;93647.66;5010264;28;20498;-81
2021/10/10 07:03:12;;;;;;;23.38;15.95;;;;;;;10.02;100.00;93653.41;5019368;28;20042;-81
2021/10/10 07:05:40;;;;;;;52.63;35.38;;;;;;;10.03;100.00;93652.41;5030294;28;20049;-81
2021/10/10 07:08:07;;;;;;;27.40;19.23;;;;;;;10.07;100.00;93657.13;5029840;28;20053;-82
2021/10/10 07:10:34;;;;;;;39.17;23.17;;;;;;;10.11;100.00;93656.56;5030108;28;20053;-81
2021/10/10 07:13:00;;;;;;;33.30;21.73;;;;;;;9.80;100.00;93636.56;5030055;28;20045;-82
2021/10/10 07:15:27;;;;;;;24.60;14.57;;;;;;;9.84;100.00;93641.13;5029812;28;20053;-82
2021/10/10 07:17:58;;;;;;;25.83;15.85;;;;;;;9.95;100.00;93656.94;5029930;28;20057;-82
2021/10/10 07:20:30;;;;;;;154.27;56.70;;;;;;;9.91;100.00;93655.75;5029737;28;20136;-82
2021/10/10 07:23:10;;;;;;;47.47;28.30;;;;;;;9.83;100.00;93656.69;5018142;28;20502;-82
2021/10/10 07:25:37;;;;;;;37.40;23.55;;;;;;;9.80;100.00;93657.88;5009802;28;20046;-83
2021/10/10 07:28:04;;;;;;;24.88;15.85;;;;;;;9.26;100.00;93649.22;5009823;28;20553;-82
2021/10/10 07:30:30;;;;;;;17.20;12.05;;;;;;;9.32;100.00;93654.38;5010087;28;20413;-82
2021/10/10 07:32:57;;;;;;;22.08;15.70;;;;;;;9.23;100.00;93663.97;5010323;28;20057;-81
2021/10/10 07:35:24;;;;;;;15.75;12.27;;;;;;;9.02;100.00;93661.50;5010119;28;20053;-81
2021/10/10 07:37:51;;;;;;;15.98;11.82;;;;;;;9.01;100.00;93667.59;5029247;28;20041;-81
2021/10/10 07:40:19;;;;;;;17.45;14.23;;;;;;;8.85;100.00;93666.13;5029371;28;20400;-81
2021/10/10 07:42:46;;;;;;;22.92;16.45;;;;;;;8.79;100.00;93672.78;5029220;28;20059;-81
2021/10/10 07:45:18;;;;;;;23.52;17.63;;;;;;;8.75;100.00;93667.25;5029529;28;20128;-81
2021/10/10 07:47:49;;;;;;;26.17;18.55;;;;;;;8.62;100.00;93667.16;5029218;28;20061;-81
2021/10/10 07:50:16;;;;;;;31.63;21.58;;;;;;;8.46;100.00;93663.84;5029526;28;20481;-81
2021/10/10 07:52:43;;;;;;;25.55;19.00;;;;;;;8.47;100.00;93683.34;5029345;28;20053;-81
2021/10/10 07:55:11;;;;;;;26.70;19.40;;;;;;;8.59;100.00;93677.75;5029122;28;20505;-81
2021/10/10 07:57:39;;;;;;;27.13;19.15;;;;;;;8.79;100.00;93691.50;5029235;28;20053;-81
2021/10/10 08:00:08;;;;;;;24.23;17.52;;;;;;;8.82;100.00;93686.03;5029329;28;20045;-82
2021/10/10 08:02:49;;;;;;;25.58;16.85;;;;;;;9.02;100.00;93700.72;5029062;28;20050;-82
2021/10/10 08:05:16;;;;;;;22.95;16.67;;;;;;;9.05;100.00;93684.19;5028984;28;20128;-82
2021/10/10 08:07:43;;;;;;;24.42;17.30;;;;;;;9.19;100.00;93705.56;5029071;28;20497;-82
2021/10/10 08:10:10;;;;;;;30.83;20.15;;;;;;;9.29;100.00;93710.34;5029243;28;20053;-81
2021/10/10 08:12:37;;;;;;;25.05;17.55;;;;;;;9.26;100.00;93708.16;5029348;28;20057;-82
2021/10/10 08:15:06;;;;;;;30.45;20.23;;;;;;;9.30;100.00;93688.88;5028799;28;20615;-82
2021/10/10 08:17:33;;;;;;;30.08;20.42;;;;;;;9.19;100.00;93692.75;5028967;28;20058;-81
2021/10/10 08:20:00;;;;;;;23.90;17.73;;;;;;;9.33;100.00;93688.47;5028995;28;20045;-82
2021/10/10 08:22:27;;;;;;;27.95;20.23;;;;;;;9.41;100.00;93695.22;5021652;28;20096;-83
2021/10/10 08:24:53;;;;;;;24.60;16.63;;;;;;;8.92;100.00;93646.44;5009508;28;20076;-82
2021/10/10 08:27:21;;;;;;;34.95;23.90;;;;;;;9.17;100.00;93669.84;5009002;28;20057;-81
2021/10/10 08:29:48;;;;;;;24.65;16.35;;;;;;;9.19;100.00;93692.75;5009582;28;20069;-81
2021/10/10 08:32:17;;;;;;;24.88;19.20;;;;;;;9.00;100.00;93673.69;5009141;28;20049;-81
2021/10/10 08:34:43;;;;;;;26.58;19.08;;;;;;;9.25;100.00;93684.28;5009189;28;20537;-82
2021/10/10 08:37:10;;;;;;;31.92;19.33;;;;;;;9.17;100.00;93674.22;5024300;28;20057;-82
2021/10/10 08:39:37;;;;;;;60.60;35.60;;;;;;;9.19;100.00;93667.09;5029036;28;20045;-82
2021/10/10 08:42:08;;;;;;;69.43;41.42;;;;;;;9.17;100.00;93666.50;5028716;28;20576;-82
2021/10/10 08:44:40;;;;;;;46.13;27.48;;;;;;;9.31;100.00;93662.25;5028901;28;20056;-82
2021/10/10 08:47:14;;;;;;;32.90;22.15;;;;;;;9.36;100.00;93653.00;5028765;28;20048;-81
2021/10/10 08:49:43;;;;;;;35.17;20.67;;;;;;;9.59;100.00;93657.03;5028932;28;20046;-82
2021/10/10 08:52:11;;;;;;;22.70;17.10;;;;;;;9.56;100.00;93631.78;5032736;28;20053;-81
2021/10/10 08:54:38;;;;;;;19.10;13.20;;;;;;;9.67;100.00;93638.09;5032646;28;20052;-82
2021/10/10 08:57:08;;;;;;;20.83;16.23;;;;;;;9.69;100.00;93625.91;5032382;28;20045;-81
2021/10/10 08:59:38;;;;;;;24.15;17.33;;;;;;;9.84;100.00;93636.00;5032626;28;20399;-82
2021/10/10 09:02:08;;;;;;;19.83;13.68;;;;;;;9.75;100.00;93622.56;5032199;28;20049;-81
2021/10/10 09:04:39;;;;;;;18.92;13.18;;;;;;;9.86;100.00;93638.38;5032212;28;20049;-81
2021/10/10 09:07:07;;;;;;;19.33;13.93;;;;;;;9.86;100.00;93621.19;5031961;28;20045;-81
2021/10/10 09:09:36;;;;;;;21.02;14.68;;;;;;;9.99;100.00;93610.16;5032536;28;20049;-81
2021/10/10 09:12:05;;;;;;;38.30;27.30;;;;;;;9.86;100.00;93605.00;5032146;28;20041;-82
2021/10/10 09:14:42;;;;;;;37.80;27.17;;;;;;;10.13;100.00;93623.78;5032065;28;20046;-82
2021/10/10 09:17:11;;;;;;;34.50;22.65;;;;;;;10.28;100.00;93636.44;5032143;28;20049;-81
2021/10/10 09:19:38;;;;;;;26.60;19.00;;;;;;;10.34;100.00;93632.31;5031912;28;20460;-82
2021/10/10 09:22:10;;;;;;;22.67;16.90;;;;;;;10.43;100.00;93625.22;5027259;28;20101;-82
2021/10/10 09:24:38;;;;;;;23.05;16.15;;;;;;;10.57;100.00;93626.00;5012506;28;20049;-82
2021/10/10 09:27:05;;;;;;;24.70;16.80;;;;;;;10.67;100.00;93625.59;5011891;28;20520;-82
2021/10/10 09:29:33;;;;;;;21.98;15.05;;;;;;;10.71;100.00;93624.22;5012192;28;20140;-83
2021/10/10 09:32:12;;;;;;;17.15;12.20;;;;;;;10.64;100.00;93615.72;5011957;28;20501;-83
2021/10/10 09:34:40;;;;;;;14.25;10.95;;;;;;;10.58;100.00;93606.22;5011921;28;20046;-83
2021/10/10 09:37:12;;;;;;;29.23;16.88;;;;;;;10.58;100.00;93596.75;5025928;28;20053;-83
2021/10/10 09:39:42;;;;;;;24.00;15.07;;;;;;;10.71;100.00;93611.38;5031538;28;20049;-83
2021/10/10 09:42:09;;;;;;;24.30;12.07;;;;;;;10.70;100.00;93612.34;5031860;28;20046;-83
2021/10/10 09:44:52;;;;;;;15.48;9.43;;;;;;;10.34;100.00;93580.94;5031464;28;20136;-83
2021/10/10 09:47:19;;;;;;;17.35;10.20;;;;;;;10.58;100.00;93606.22;5031358;28;20099;-83
2021/10/10 09:49:45;;;;;;;14.23;9.68;;;;;;;10.57;100.00;93608.03;5031686;28;20050;-83
2021/10/10 09:52:16;;;;;;;16.05;11.63;;;;;;;10.63;100.00;93607.22;5031815;28;20050;-83
2021/10/10 09:54:51;;;;;;;12.43;7.05;;;;;;;10.75;100.00;93614.31;5031838;28;20041;-83
2021/10/10 09:57:19;;;;;;;28.90;15.17;;;;;;;10.42;100.00;93621.03;5031667;28;20048;-82
2021/10/10 09:59:46;;;;;;;11.88;7.95;;;;;;;10.29;100.00;93620.03;5031481;28;20386;-81
2021/10/10 10:02:13;;;;;;;47.03;24.67;;;;;;;10.22;100.00;93613.31;5031453;28;20095;-81
2021/10/10 10:04:47;;;;;;;12.35;8.00;;;;;;;10.12;100.00;93618.84;5031426;28;20099;-81
2021/10/10 10:07:17;;;;;;;72.95;35.42;;;;;;;9.79;100.00;93612.69;5031503;28;20050;-81
2021/10/10 10:09:50;;;;;;;31.38;17.67;;;;;;;9.82;100.00;93614.84;5031339;28;20449;-80
2021/10/10 10:12:17;;;;;;;13.57;9.35;;;;;;;9.96;100.00;93610.53;5031363;28;20140;-81
2021/10/10 10:14:45;;;;;;;11.73;7.72;;;;;;;10.21;100.00;93614.31;5031200;28;20412;-82
2021/10/10 10:17:12;;;;;;;14.73;9.48;;;;;;;10.43;100.00;93620.84;5030839;28;20485;-81
2021/10/10 10:19:40;;;;;;;15.63;9.88;;;;;;;10.64;100.00;93626.78;5031009;28;20050;-81
2021/10/10 10:22:09;;;;;;;11.25;8.30;;;;;;;10.82;100.00;93615.09;5025142;28;20053;-80
2021/10/10 10:24:41;;;;;;;15.25;10.73;;;;;;;10.95;100.00;93616.84;5028806;28;20046;-80
2021/10/10 10:27:08;;;;;;;13.77;10.00;;;;;;;11.11;100.00;93615.59;5029931;28;20056;-80
2021/10/10 10:29:40;;;;;;;12.50;9.10;;;;;;;11.09;100.00;93608.13;5030968;28;20041;-80
2021/10/10 10:32:09;;;;;;;11.95;8.68;;;;;;;11.15;100.00;93596.22;5030967;28;20099;-80
2021/10/10 10:34:37;;;;;;;13.07;10.25;;;;;;;11.26;100.00;93594.00;5030950;28;20132;-80
2021/10/10 10:37:06;;;;;;;22.73;15.98;;;;;;;11.53;100.00;93611.91;5016548;28;20054;-80
2021/10/10 10:39:40;;;;;;;16.10;12.60;;;;;;;11.58;100.00;93622.38;5010729;28;20069;-80
2021/10/10 10:42:07;;;;;;;8.35;6.32;;;;;;;11.41;100.00;93619.47;5010495;28;20058;-80
2021/10/10 10:44:39;;;;;;;9.85;8.23;;;;;;;11.09;100.00;93607.31;5010761;28;20057;-81
2021/10/10 10:47:07;;;;;;;10.85;8.30;;;;;;;10.48;100.00;93578.38;5010567;28;20046;-81
2021/10/10 10:50:00;;;;;;;19.85;12.80;;;;;;;10.36;100.00;93601.25;5010537;28;20057;-81
2021/10/10 10:52:29;;;;;;;17.88;13.15;;;;;;;10.47;100.00;93605.88;5010613;28;20056;-80
2021/10/10 10:54:58;;;;;;;25.85;16.67;;;;;;;10.56;100.00;93599.50;5011114;28;20410;-80
2021/10/10 10:57:32;;;;;;;27.10;17.70;;;;;;;10.72;100.00;93602.66;5010543;28;20050;-80
2021/10/10 11:00:01;;;;;;;14.45;10.57;;;;;;;10.74;100.00;93595.53;5010592;28;20049;-80
2021/10/10 11:02:53;;;;;;;19.75;13.50;;;;;;;10.41;100.00;93596.31;5010433;28;20104;-80
2021/10/10 11:05:52;;;;;;;14.50;10.85;;;;;;;10.34;100.00;93587.84;5010343;28;20050;-80
2021/10/10 11:08:39;;;;;;;31.10;18.27;;;;;;;10.51;100.00;93590.84;5005945;28;20054;-80
2021/10/10 11:11:19;;;;;;;19.63;14.40;;;;;;;10.42;100.00;93565.31;5010414;28;20189;-80
2021/10/10 11:13:48;;;;;;;11.40;9.32;;;;;;;10.30;100.00;93579.75;5009823;28;20057;-81
2021/10/10 11:16:17;;;;;;;38.05;26.55;;;;;;;10.31;100.00;93578.00;5010160;28;20053;-80
2021/10/10 11:18:49;;;;;;;36.22;27.40;;;;;;;10.39;100.00;93581.13;5010461;28;20426;-80
2021/10/10 11:21:17;;;;;;;11.18;9.23;;;;;;;10.25;100.00;93572.66;5010528;28;20046;-81
2021/10/10 11:23:48;;;;;;;7.60;6.65;;;;;;;10.14;100.00;93573.25;5027688;28;20463;-81